Time;durP1;ratioP1;P1;durP2;ratioP2;P2;SDS_P1;SDS_P2;PMS_P1;PMS_P2;Temp;Humidity;BMP_temperature;BMP_pressure;BME280_temperature;BME280_humidity;BME280_pressure;Samples;Min_cycle;Max_cycle;Signal;HPM_P1;HPM_P2
2021/10/26 00:02:18;;;;;;;5.38;1.80;;;;;;;19.36;55.05;101600.72;4949919;28;20248;-67
2021/10/26 00:04:46;;;;;;;12.02;2.28;;;;;;;19.37;54.85;101603.34;4950755;28;20130;-67
2021/10/26 00:07:14;;;;;;;6.15;1.77;;;;;;;19.38;54.70;101601.56;4950924;28;20404;-67
2021/10/26 00:09:41;;;;;;;9.38;2.03;;;;;;;19.36;54.55;101596.22;4950951;28;20035;-67
2021/10/26 00:12:11;;;;;;;11.45;1.70;;;;;;;19.35;54.47;101597.16;4950856;28;20047;-67
2021/10/26 00:14:39;;;;;;;9.27;1.98;;;;;;;19.37;54.51;101591.75;4950910;28;20049;-67
2021/10/26 00:17:06;;;;;;;6.30;1.67;;;;;;;19.40;54.55;101586.38;4951028;28;20043;-67
2021/10/26 00:19:34;;;;;;;7.70;2.05;;;;;;;19.39;54.64;101588.19;4950299;28;20040;-67
2021/10/26 00:22:02;;;;;;;10.02;2.10;;;;;;;19.39;54.39;101584.59;4950297;28;20049;-68
2021/10/26 00:24:30;;;;;;;9.13;2.28;;;;;;;19.37;54.66;101573.00;4951236;28;20047;-67
2021/10/26 00:26:58;;;;;;;6.28;2.28;;;;;;;19.35;54.70;101574.84;4950999;28;20115;-67
2021/10/26 00:29:27;;;;;;;10.52;2.03;;;;;;;19.33;54.62;101584.66;4949953;28;20116;-67
2021/10/26 00:31:56;;;;;;;4.18;1.55;;;;;;;19.32;54.81;101581.09;4949159;28;20047;-67
2021/10/26 00:34:23;;;;;;;7.53;2.08;;;;;;;19.29;54.83;101586.47;4950440;28;20055;-67
2021/10/26 00:36:50;;;;;;;10.23;2.03;;;;;;;19.26;54.85;101578.47;4950371;28;20040;-67
2021/10/26 00:39:18;;;;;;;9.10;1.90;;;;;;;19.29;54.73;101577.56;4950269;28;20065;-67
2021/10/26 00:41:46;;;;;;;9.27;2.10;;;;;;;19.31;54.82;101573.06;4950531;28;20050;-67
2021/10/26 00:44:14;;;;;;;8.73;2.10;;;;;;;19.32;54.75;101577.53;4950642;28;20408;-66
2021/10/26 00:46:43;;;;;;;9.65;2.22;;;;;;;19.33;54.88;101572.16;4949899;28;20043;-67
2021/10/26 00:49:11;;;;;;;5.78;1.80;;;;;;;19.32;54.81;101566.81;4949973;28;20043;-67
2021/10/26 00:51:41;;;;;;;6.47;1.98;;;;;;;19.36;54.81;101573.94;4950586;28;20043;-67
2021/10/26 00:54:09;;;;;;;8.93;2.15;;;;;;;19.39;54.97;101571.22;4950274;28;20047;-67
2021/10/26 00:56:36;;;;;;;9.85;2.33;;;;;;;19.40;54.97;101562.28;4950744;28;20062;-67
2021/10/26 00:59:04;;;;;;;7.78;2.25;;;;;;;19.39;55.11;101560.50;4950463;28;20039;-67
2021/10/26 01:01:32;;;;;;;8.98;1.77;;;;;;;19.37;55.09;101557.84;5013209;28;20048;-66
2021/10/26 01:04:01;;;;;;;7.35;1.95;;;;;;;19.38;55.06;101566.75;4950136;28;20039;-67
2021/10/26 01:06:28;;;;;;;7.28;2.22;;;;;;;19.36;54.89;101560.56;4949629;28;20059;-67
2021/10/26 01:08:55;;;;;;;10.25;1.95;;;;;;;19.36;55.10;101565.91;4949676;28;20401;-67
2021/10/26 01:11:24;;;;;;;8.05;2.10;;;;;;;19.39;54.96;101571.22;4950541;28;20054;-67
2021/10/26 01:13:52;;;;;;;9.40;1.73;;;;;;;19.40;54.91;101564.97;4950786;28;20051;-67
2021/10/26 01:16:20;;;;;;;5.85;1.77;;;;;;;19.39;54.92;101560.50;4949562;28;20039;-67
2021/10/26 01:18:47;;;;;;;11.00;2.20;;;;;;;19.37;54.89;101556.94;4950140;28;20047;-67
2021/10/26 01:21:16;;;;;;;6.40;2.20;;;;;;;19.34;54.67;101554.31;4949840;28;20428;-67
2021/10/26 01:23:44;;;;;;;8.55;1.77;;;;;;;19.34;54.66;101551.63;4950359;28;20055;-67
2021/10/26 01:26:12;;;;;;;5.60;1.95;;;;;;;19.32;54.43;101553.41;4949678;28;20044;-67
2021/10/26 01:28:40;;;;;;;8.43;1.90;;;;;;;19.31;54.68;101546.28;4949389;28;20530;-68
2021/10/26 01:31:07;;;;;;;5.43;1.70;;;;;;;19.34;54.48;101559.66;4949459;28;20036;-67
2021/10/26 01:33:35;;;;;;;6.95;1.77;;;;;;;19.36;54.55;101557.88;4949920;28;20439;-67
2021/10/26 01:36:02;;;;;;;7.82;2.13;;;;;;;19.37;54.55;101563.19;4948298;28;20043;-67
2021/10/26 01:38:31;;;;;;;6.22;2.35;;;;;;;19.40;54.63;101559.59;4950341;28;20043;-67
2021/10/26 01:40:59;;;;;;;6.22;1.65;;;;;;;19.34;54.63;101559.66;4949359;28;20046;-67
2021/10/26 01:43:26;;;;;;;5.13;1.63;;;;;;;19.35;54.71;101569.47;4949532;28;20047;-67
2021/10/26 01:45:54;;;;;;;5.47;2.25;;;;;;;19.36;54.64;101568.59;4949879;28;20065;-67
2021/10/26 01:48:22;;;;;;;5.35;1.42;;;;;;;19.39;54.76;101568.53;4949726;28;20063;-67
2021/10/26 01:50:49;;;;;;;7.40;1.92;;;;;;;19.38;54.79;101566.75;4949384;28;20125;-67
2021/10/26 01:53:17;;;;;;;9.48;2.55;;;;;;;19.39;54.81;101565.88;4949814;28;20070;-67
2021/10/26 01:55:46;;;;;;;9.23;1.75;;;;;;;19.40;54.59;101563.19;4949612;28;20054;-67
2021/10/26 01:58:15;;;;;;;9.48;2.00;;;;;;;19.42;54.67;101566.75;4949365;28;20043;-67
2021/10/26 02:00:42;;;;;;;7.45;1.73;;;;;;;19.45;54.81;101560.47;4949303;28;20044;-67
2021/10/26 02:03:09;;;;;;;7.43;1.77;;;;;;;19.45;54.77;101560.47;4930226;29;20051;-67
2021/10/26 02:05:37;;;;;;;7.05;1.85;;;;;;;19.41;54.91;101558.72;4943155;28;20039;-67
2021/10/26 02:08:05;;;;;;;9.15;2.10;;;;;;;19.40;54.92;101551.56;4948741;28;20043;-67
2021/10/26 02:10:32;;;;;;;8.27;1.90;;;;;;;19.39;54.65;101552.47;4949533;28;20378;-67
2021/10/26 02:13:01;;;;;;;6.63;1.88;;;;;;;19.39;54.69;101542.66;4949734;28;20039;-67
2021/10/26 02:15:28;;;;;;;8.48;2.40;;;;;;;19.40;54.64;101543.53;4949364;28;20520;-67
2021/10/26 02:17:56;;;;;;;7.32;2.20;;;;;;;19.39;54.86;101537.28;4948624;28;20058;-67
2021/10/26 02:20:24;;;;;;;11.05;2.10;;;;;;;19.40;54.86;101540.88;4952795;28;20047;-67
2021/10/26 02:22:51;;;;;;;6.70;1.90;;;;;;;19.42;54.80;101539.06;4953224;28;20504;-67
2021/10/26 02:25:19;;;;;;;10.73;2.08;;;;;;;19.41;54.93;101545.31;4952206;28;20062;-67
2021/10/26 02:27:47;;;;;;;7.10;1.70;;;;;;;19.40;55.03;101554.25;4952230;28;20063;-67
2021/10/26 02:30:16;;;;;;;10.43;2.15;;;;;;;19.39;55.27;101549.78;4952427;28;20123;-66
2021/10/26 02:32:43;;;;;;;10.05;1.73;;;;;;;19.36;55.46;101539.13;4952682;28;20076;-67
2021/10/26 02:35:12;;;;;;;10.40;2.00;;;;;;;19.31;55.49;101541.81;4952954;28;20130;-67
2021/10/26 02:37:39;;;;;;;8.18;2.15;;;;;;;19.34;55.57;101543.59;4952256;28;20433;-67
2021/10/26 02:40:08;;;;;;;8.90;2.00;;;;;;;19.36;55.67;101539.13;4951819;28;20050;-67
2021/10/26 02:42:35;;;;;;;7.63;2.40;;;;;;;19.38;55.48;101534.63;4952366;28;20047;-67
2021/10/26 02:45:04;;;;;;;9.43;2.67;;;;;;;19.37;55.84;101533.72;4952606;28;20040;-67
2021/10/26 02:47:33;;;;;;;8.75;1.98;;;;;;;19.34;55.88;101533.78;4952380;28;20039;-67
2021/10/26 02:50:01;;;;;;;11.02;3.00;;;;;;;19.31;56.06;101548.97;4952706;28;20044;-67
2021/10/26 02:52:29;;;;;;;6.15;2.00;;;;;;;19.30;56.34;101544.50;4951893;28;20035;-67
2021/10/26 02:54:56;;;;;;;11.18;2.20;;;;;;;19.29;56.22;101557.03;4952382;28;20051;-67
2021/10/26 02:57:23;;;;;;;8.00;2.38;;;;;;;19.22;56.28;101547.25;4952281;28;20062;-67
2021/10/26 02:59:51;;;;;;;11.90;2.00;;;;;;;19.23;56.20;101545.47;4952664;28;20487;-67
2021/10/26 03:02:18;;;;;;;8.35;2.45;;;;;;;19.23;55.69;101540.97;4952657;28;20036;-66
2021/10/26 03:04:47;;;;;;;12.45;2.80;;;;;;;19.25;55.55;101540.97;4952358;28;20052;-66
2021/10/26 03:07:14;;;;;;;6.03;2.47;;;;;;;19.21;55.74;101537.44;4951032;28;20413;-66
2021/10/26 03:09:42;;;;;;;8.25;2.42;;;;;;;19.20;55.74;101541.00;4951065;28;20040;-67
2021/10/26 03:12:10;;;;;;;15.18;2.95;;;;;;;19.20;55.95;101532.09;4951372;28;20040;-67
2021/10/26 03:14:37;;;;;;;9.32;2.17;;;;;;;19.22;56.22;101539.22;4952206;28;20409;-67
2021/10/26 03:17:05;;;;;;;10.73;2.40;;;;;;;19.22;56.32;101541.00;4951504;28;20500;-67
2021/10/26 03:19:32;;;;;;;9.00;2.30;;;;;;;19.21;56.46;101542.81;4950718;28;20043;-67
2021/10/26 03:22:01;;;;;;;7.90;1.90;;;;;;;19.25;56.60;101543.66;4951753;28;20055;-67
2021/10/26 03:24:29;;;;;;;11.23;3.45;;;;;;;19.27;56.60;101539.19;4951969;28;20520;-67
2021/10/26 03:26:57;;;;;;;14.43;2.13;;;;;;;19.29;56.59;101540.06;4951543;28;20031;-67
2021/10/26 03:29:25;;;;;;;7.50;2.53;;;;;;;19.32;56.49;101545.38;4934449;28;20051;-67
2021/10/26 03:31:53;;;;;;;11.27;2.35;;;;;;;19.29;56.33;101534.72;4951785;28;20439;-68
2021/10/26 03:34:20;;;;;;;15.73;3.22;;;;;;;19.24;56.66;101542.75;4950995;28;20116;-67
2021/10/26 03:36:48;;;;;;;11.10;3.08;;;;;;;19.24;56.87;101541.88;4951249;28;20040;-67
2021/10/26 03:39:17;;;;;;;8.52;2.33;;;;;;;19.26;56.81;101543.66;4951265;28;20043;-67
2021/10/26 03:41:45;;;;;;;7.25;2.00;;;;;;;19.25;56.68;101543.66;4951316;28;20055;-67
2021/10/26 03:44:12;;;;;;;10.35;2.08;;;;;;;19.23;56.80;101549.00;4951365;28;20047;-67
2021/10/26 03:46:39;;;;;;;10.55;2.25;;;;;;;19.22;56.99;101555.28;4952091;28;20093;-67
2021/10/26 03:49:07;;;;;;;9.38;2.15;;;;;;;19.18;57.86;101555.31;4949883;28;20043;-67
2021/10/26 03:51:35;;;;;;;12.13;2.72;;;;;;;19.10;58.62;101550.88;4951924;28;20039;-67
2021/10/26 03:54:02;;;;;;;11.07;2.95;;;;;;;19.08;59.21;101551.81;4951543;28;20036;-67
2021/10/26 03:56:32;;;;;;;9.10;2.30;;;;;;;19.03;59.50;101551.81;4945827;28;20051;-67
2021/10/26 03:59:02;;;;;;;10.82;2.45;;;;;;;19.00;59.92;101546.50;4950661;28;20079;-67
2021/10/26 04:01:30;;;;;;;14.73;2.83;;;;;;;18.97;60.24;101546.50;4950851;28;20132;-67
2021/10/26 04:03:58;;;;;;;10.98;2.50;;;;;;;18.98;60.24;101548.28;4950860;28;20043;-67
2021/10/26 04:06:27;;;;;;;11.15;2.50;;;;;;;18.97;60.54;101543.84;4951015;28;20045;-67
2021/10/26 04:08:58;;;;;;;12.48;2.58;;;;;;;18.96;60.92;101546.53;4950231;28;20058;-66
2021/10/26 04:11:27;;;;;;;13.30;2.95;;;;;;;18.99;60.82;101550.06;4951625;28;20047;-66
2021/10/26 04:13:56;;;;;;;11.80;3.00;;;;;;;19.03;60.95;101553.66;4951115;28;20045;-67
2021/10/26 04:16:24;;;;;;;10.18;2.63;;;;;;;19.00;61.01;101546.50;4950758;28;20405;-67
2021/10/26 04:18:51;;;;;;;10.02;2.50;;;;;;;18.95;61.26;101550.13;4950111;28;20063;-68
2021/10/26 04:21:19;;;;;;;10.82;2.90;;;;;;;18.96;61.07;101558.16;4951463;28;20046;-67
2021/10/26 04:23:47;;;;;;;9.77;2.58;;;;;;;18.96;60.87;101547.44;4950913;28;20139;-66
2021/10/26 04:26:16;;;;;;;10.98;2.60;;;;;;;18.96;60.60;101551.91;4951054;28;20046;-67
2021/10/26 04:28:43;;;;;;;7.90;2.78;;;;;;;18.97;60.57;101557.22;4950413;28;20130;-67
2021/10/26 04:31:14;;;;;;;9.90;3.42;;;;;;;18.99;60.61;101559.88;4950532;28;20042;-67
2021/10/26 04:33:42;;;;;;;8.15;2.33;;;;;;;18.99;60.18;101560.78;4949612;28;20093;-67
2021/10/26 04:36:10;;;;;;;11.90;2.40;;;;;;;19.00;60.11;101553.66;4949401;28;20051;-67
2021/10/26 04:38:37;;;;;;;9.00;3.17;;;;;;;19.02;60.15;101554.53;4948122;28;20047;-67
2021/10/26 04:41:07;;;;;;;10.55;3.15;;;;;;;19.00;60.05;101565.25;5024030;28;20041;-67
2021/10/26 04:43:35;;;;;;;9.48;2.60;;;;;;;19.02;59.91;101566.13;4963560;28;20031;-67
2021/10/26 04:46:03;;;;;;;10.10;2.38;;;;;;;19.03;60.08;101557.19;4950069;28;20031;-67
2021/10/26 04:48:32;;;;;;;11.27;2.85;;;;;;;19.01;59.92;101559.00;4950209;28;20518;-67
2021/10/26 04:50:59;;;;;;;10.70;2.70;;;;;;;18.94;60.11;101567.97;4950499;28;20067;-68
2021/10/26 04:53:27;;;;;;;17.90;3.33;;;;;;;18.92;60.31;101572.41;4949686;28;20043;-67
2021/10/26 04:55:55;;;;;;;12.55;3.72;;;;;;;18.95;60.34;101571.53;4950839;28;20058;-67
2021/10/26 04:58:22;;;;;;;8.65;2.30;;;;;;;18.98;60.22;101576.84;4950059;28;20047;-67
2021/10/26 05:00:50;;;;;;;13.65;2.20;;;;;;;19.03;60.10;101567.03;4950828;28;20566;-67
2021/10/26 05:03:17;;;;;;;25.75;4.28;;;;;;;19.04;60.00;101560.75;4948914;28;20042;-67
2021/10/26 05:05:46;;;;;;;12.55;2.67;;;;;;;19.04;59.84;101561.63;4949537;28;20051;-67
2021/10/26 05:08:13;;;;;;;16.10;3.03;;;;;;;19.04;59.70;101568.78;4948487;28;20132;-67
2021/10/26 05:10:41;;;;;;;9.93;3.08;;;;;;;19.07;59.66;101580.38;4949430;28;20039;-67
2021/10/26 05:13:08;;;;;;;32.10;5.03;;;;;;;19.03;59.44;101575.06;4949445;28;20049;-69
2021/10/26 05:15:36;;;;;;;16.35;4.20;;;;;;;19.04;59.71;101579.47;4949493;28;20114;-69
2021/10/26 05:18:03;;;;;;;9.57;3.00;;;;;;;19.04;60.43;101571.44;4949544;28;20117;-69
2021/10/26 05:20:33;;;;;;;24.80;3.55;;;;;;;19.05;60.97;101579.47;4949725;28;20036;-69
2021/10/26 05:23:03;;;;;;;25.23;3.95;;;;;;;19.12;61.35;101574.97;4940385;28;20135;-69
2021/10/26 05:25:30;;;;;;;10.02;3.47;;;;;;;19.19;61.96;101579.38;4931009;28;20040;-69
2021/10/26 05:27:58;;;;;;;10.98;3.30;;;;;;;19.24;62.29;101576.69;4922565;28;20043;-68
2021/10/26 05:30:25;;;;;;;13.63;3.55;;;;;;;19.26;61.92;101583.81;4955647;28;20047;-68
2021/10/26 05:32:53;;;;;;;11.30;3.03;;;;;;;19.26;61.92;101581.13;4958205;28;20043;-68
2021/10/26 05:35:20;;;;;;;11.70;2.75;;;;;;;19.34;61.88;101575.72;4956958;28;20047;-68
2021/10/26 05:37:48;;;;;;;10.60;2.72;;;;;;;19.37;61.59;101579.25;4960729;28;20113;-68
2021/10/26 05:40:16;;;;;;;14.38;2.95;;;;;;;19.38;60.90;101589.06;4938693;28;20527;-67
2021/10/26 05:43:04;;;;;;;10.82;3.25;;;;;;;19.40;61.19;101586.38;4937721;28;20050;-67
2021/10/26 05:45:32;;;;;;;8.77;2.80;;;;;;;19.46;61.09;101589.94;4950204;28;20054;-68
2021/10/26 05:47:59;;;;;;;12.05;3.00;;;;;;;19.48;60.59;101590.84;4949749;28;20047;-67
2021/10/26 05:50:26;;;;;;;6.97;2.38;;;;;;;19.48;60.06;101590.84;4949702;28;20043;-68
2021/10/26 05:52:54;;;;;;;11.48;3.72;;;;;;;19.52;60.20;101594.38;4948906;28;20054;-67
2021/10/26 05:55:23;;;;;;;10.80;4.30;;;;;;;19.57;60.11;101600.56;4952459;28;20042;-67
2021/10/26 05:57:50;;;;;;;12.32;3.85;;;;;;;19.60;59.97;101597.88;4949912;28;20535;-68
2021/10/26 06:00:38;;;;;;;11.15;3.35;;;;;;;19.73;59.93;101588.84;4948292;28;20124;-67
2021/10/26 06:03:05;;;;;;;8.13;2.40;;;;;;;19.83;59.40;101595.88;4949735;28;20499;-67
2021/10/26 06:05:33;;;;;;;9.68;2.80;;;;;;;19.90;59.21;101594.91;4950120;28;20438;-67
2021/10/26 06:08:01;;;;;;;11.45;2.50;;;;;;;20.01;59.19;101610.91;4949775;28;20047;-67
2021/10/26 06:10:31;;;;;;;7.35;2.42;;;;;;;20.16;59.43;101608.06;4949200;28;20386;-67
2021/10/26 06:13:03;;;;;;;10.93;2.58;;;;;;;20.36;59.00;101607.88;4952890;28;20118;-67
2021/10/26 06:15:31;;;;;;;6.60;2.15;;;;;;;20.57;58.56;101596.03;4949351;28;20054;-67
2021/10/26 06:17:58;;;;;;;10.63;2.65;;;;;;;20.62;57.84;101597.75;4949041;28;20043;-67
2021/10/26 06:20:25;;;;;;;12.05;2.65;;;;;;;20.64;57.58;101605.78;4949409;28;20063;-67
2021/10/26 06:22:53;;;;;;;12.13;2.60;;;;;;;20.69;57.47;101604.81;4963782;28;20075;-67
2021/10/26 06:25:20;;;;;;;8.43;2.50;;;;;;;20.66;57.08;101598.59;4949505;28;20045;-67
2021/10/26 06:27:49;;;;;;;10.15;2.55;;;;;;;20.63;56.88;101607.56;4949756;28;20051;-67
2021/10/26 06:30:17;;;;;;;18.83;3.65;;;;;;;20.57;57.19;101602.28;4950129;28;20557;-67
2021/10/26 06:32:45;;;;;;;8.93;3.13;;;;;;;20.54;57.39;101604.13;4949458;28;20093;-67
2021/10/26 06:35:13;;;;;;;9.05;3.15;;;;;;;20.53;57.30;101618.44;4949563;28;20044;-67
2021/10/26 06:37:43;;;;;;;12.15;3.80;;;;;;;20.49;57.11;101614.88;4948664;28;20047;-67
2021/10/26 06:40:12;;;;;;;12.38;2.95;;;;;;;20.53;56.91;101608.59;4949476;28;20063;-66
2021/10/26 06:42:40;;;;;;;16.80;3.67;;;;;;;20.63;56.91;101617.41;4949398;28;20071;-67
2021/10/26 06:45:10;;;;;;;12.70;3.30;;;;;;;20.73;57.00;101620.88;4949871;28;20039;-67
2021/10/26 06:47:38;;;;;;;11.77;2.75;;;;;;;20.77;57.06;101620.81;4930195;29;20052;-66
2021/10/26 06:50:07;;;;;;;9.93;2.50;;;;;;;20.78;57.35;101627.06;4948370;28;20043;-67
2021/10/26 06:52:36;;;;;;;11.70;2.65;;;;;;;20.78;57.08;101611.88;4949073;28;20049;-67
2021/10/26 06:55:05;;;;;;;7.95;2.47;;;;;;;20.82;57.08;101616.28;4949269;28;20093;-67
2021/10/26 06:57:33;;;;;;;13.38;3.17;;;;;;;20.84;57.01;101610.91;4949499;28;20044;-67
2021/10/26 07:00:00;;;;;;;10.73;3.20;;;;;;;20.78;56.48;101624.41;4948227;28;20036;-67
2021/10/26 07:02:29;;;;;;;12.15;2.90;;;;;;;20.78;56.57;101622.59;4962229;28;20047;-67
2021/10/26 07:05:00;;;;;;;12.68;3.47;;;;;;;20.75;56.64;101636.03;5050243;28;20049;-66
2021/10/26 07:07:28;;;;;;;10.23;2.63;;;;;;;20.75;56.29;101632.47;5053473;28;20048;-67
2021/10/26 07:09:55;;;;;;;16.70;5.28;;;;;;;20.75;56.29;101638.72;4987132;28;20120;-67
2021/10/26 07:12:23;;;;;;;13.93;4.80;;;;;;;20.75;56.39;101640.53;4951847;28;20045;-67
2021/10/26 07:14:51;;;;;;;10.80;2.95;;;;;;;20.78;56.07;101629.75;4952292;28;20051;-66
2021/10/26 07:17:18;;;;;;;16.23;3.17;;;;;;;20.82;55.84;101637.75;4952115;28;20118;-67
2021/10/26 07:19:47;;;;;;;11.57;2.90;;;;;;;20.84;56.09;101635.06;4955308;28;20122;-67
2021/10/26 07:22:15;;;;;;;11.77;2.85;;;;;;;20.80;55.64;101636.00;4963110;28;20035;-66
2021/10/26 07:24:42;;;;;;;8.68;2.58;;;;;;;20.86;55.66;101638.63;4965401;28;20055;-66
2021/10/26 07:27:10;;;;;;;9.13;3.28;;;;;;;20.88;55.32;101637.66;4949810;28;20124;-66
2021/10/26 07:29:37;;;;;;;10.27;2.70;;;;;;;20.91;55.38;101644.81;4958560;28;20046;-66
2021/10/26 07:32:05;;;;;;;11.82;3.13;;;;;;;20.99;55.42;101641.13;4968234;28;20043;-66
2021/10/26 07:34:33;;;;;;;11.07;3.03;;;;;;;21.04;55.16;101641.06;4955496;28;20039;-66
2021/10/26 07:37:02;;;;;;;9.07;3.15;;;;;;;21.05;54.98;101641.03;4951762;28;20100;-67
2021/10/26 07:39:46;;;;;;;9.75;3.47;;;;;;;21.10;54.16;101632.91;4955729;28;20050;-67
2021/10/26 07:42:15;;;;;;;13.38;3.65;;;;;;;21.09;54.23;101636.50;4948970;28;20043;-68
2021/10/26 07:44:42;;;;;;;8.48;3.00;;;;;;;21.18;54.16;101651.66;4949033;28;20050;-67
2021/10/26 07:47:10;;;;;;;11.73;3.30;;;;;;;21.26;54.08;101656.00;4948958;28;20049;-68
2021/10/26 07:49:38;;;;;;;13.27;2.80;;;;;;;21.37;54.19;101655.84;4950674;28;20060;-67
2021/10/26 07:52:08;;;;;;;11.90;3.10;;;;;;;21.44;53.46;101642.31;4951128;28;20480;-67
2021/10/26 07:54:35;;;;;;;7.22;3.30;;;;;;;21.43;53.41;101647.69;4950578;28;20062;-67
2021/10/26 07:57:03;;;;;;;11.57;3.22;;;;;;;21.40;53.16;101645.94;4951386;28;20055;-67
2021/10/26 07:59:31;;;;;;;9.80;3.30;;;;;;;21.39;53.38;101652.25;4951086;28;20078;-67
2021/10/26 08:01:59;;;;;;;7.55;3.00;;;;;;;21.38;53.19;101644.19;4950159;28;20552;-66
2021/10/26 08:04:26;;;;;;;6.88;3.08;;;;;;;21.45;53.40;101641.41;4951737;28;20040;-66
2021/10/26 08:06:54;;;;;;;11.43;3.10;;;;;;;21.52;53.61;101646.69;4950429;28;20044;-66
2021/10/26 08:09:23;;;;;;;12.40;3.92;;;;;;;21.47;53.06;101635.97;4951612;28;20418;-66
2021/10/26 08:11:50;;;;;;;13.27;6.20;;;;;;;21.48;53.01;101644.03;4949183;28;20040;-67
2021/10/26 08:14:18;;;;;;;9.88;3.13;;;;;;;21.56;52.71;101640.34;4947870;28;20057;-67
2021/10/26 08:16:45;;;;;;;11.27;3.40;;;;;;;21.58;52.61;101642.09;4949584;28;20054;-66
2021/10/26 08:19:12;;;;;;;9.30;4.03;;;;;;;21.60;52.87;101652.78;4949809;28;20058;-66
2021/10/26 08:21:40;;;;;;;13.50;4.22;;;;;;;21.63;53.38;101642.00;4950275;28;20137;-71
2021/10/26 08:24:08;;;;;;;10.30;3.20;;;;;;;21.70;54.11;101651.75;4950175;28;20054;-75
2021/10/26 08:26:39;;;;;;;11.77;3.13;;;;;;;21.74;54.31;101645.41;4950973;28;20085;-73
2021/10/26 08:29:12;;;;;;;12.15;3.13;;;;;;;21.76;54.52;101648.97;4950920;28;20492;-74
2021/10/26 08:31:46;;;;;;;13.00;3.00;;;;;;;21.94;54.63;101653.16;4951458;28;20401;-74
2021/10/26 08:34:19;;;;;;;9.05;3.90;;;;;;;22.04;54.21;101653.00;4951110;28;20051;-74
2021/10/26 08:36:48;;;;;;;11.20;2.60;;;;;;;22.02;53.89;101657.53;4931854;29;20072;-74
2021/10/26 08:39:15;;;;;;;8.50;2.80;;;;;;;22.04;52.99;101655.69;4932424;29;20402;-74
2021/10/26 08:41:47;;;;;;;7.13;2.85;;;;;;;22.03;52.58;101655.72;4931654;28;20044;-74
2021/10/26 08:44:17;;;;;;;6.18;2.50;;;;;;;22.10;52.52;101652.91;4937374;28;20050;-74
2021/10/26 08:46:46;;;;;;;11.20;2.40;;;;;;;22.17;52.37;101645.63;4950353;28;20048;-75
2021/10/26 08:49:14;;;;;;;10.35;3.20;;;;;;;22.26;51.94;101648.13;4939969;28;20040;-72
2021/10/26 08:51:44;;;;;;;6.63;2.42;;;;;;;22.46;51.72;101653.13;4943181;28;20054;-72
2021/10/26 08:54:11;;;;;;;9.10;2.92;;;;;;;22.73;51.75;101644.53;4947859;28;20047;-72
2021/10/26 08:56:40;;;;;;;10.05;2.50;;;;;;;22.98;51.50;101644.91;4943282;28;20052;-72
2021/10/26 08:59:10;;;;;;;8.60;2.63;;;;;;;23.23;51.47;101631.81;4945132;28;20089;-72
2021/10/26 09:01:38;;;;;;;11.68;2.78;;;;;;;23.40;50.94;101621.50;4947915;28;20035;-74
2021/10/26 09:04:10;;;;;;;10.95;3.05;;;;;;;23.46;50.34;101621.38;4952299;28;20047;-71
2021/10/26 09:06:44;;;;;;;12.27;2.67;;;;;;;23.70;50.09;101625.31;4950615;28;20047;-72
2021/10/26 09:09:15;;;;;;;7.45;2.50;;;;;;;23.79;49.22;101623.28;4947156;28;20777;-72
2021/10/26 09:17:28;;;;;;;9.55;2.90;;;;;;;23.85;48.36;101619.53;4957239;28;20043;-74
2021/10/26 09:19:57;;;;;;;8.15;2.67;;;;;;;23.73;47.97;101631.53;4953778;28;20053;-73
2021/10/26 09:22:26;;;;;;;17.00;2.75;;;;;;;23.61;48.09;101621.03;4953654;28;20097;-74
2021/10/26 09:24:58;;;;;;;13.50;2.95;;;;;;;23.76;48.24;101622.47;4953621;28;20055;-74
2021/10/26 09:27:26;;;;;;;9.63;3.13;;;;;;;23.63;47.66;101605.69;4951059;28;20054;-74
2021/10/26 09:29:58;;;;;;;11.07;3.42;;;;;;;23.54;47.83;101614.03;4960356;28;20093;-74
2021/10/26 09:32:34;;;;;;;8.20;2.72;;;;;;;23.59;47.63;101611.22;4955751;28;20035;-75
2021/10/26 09:35:04;;;;;;;8.52;3.17;;;;;;;23.61;48.00;101612.94;4949621;28;20122;-74
2021/10/26 09:37:35;;;;;;;10.40;2.85;;;;;;;23.87;47.97;101611.41;4952036;28;20055;-73
2021/10/26 09:40:05;;;;;;;7.70;2.85;;;;;;;24.00;47.49;101600.25;4955773;28;20096;-74
2021/10/26 09:42:41;;;;;;;9.02;2.97;;;;;;;24.17;47.72;101607.88;4956695;28;20480;-74
2021/10/26 09:45:11;;;;;;;7.85;2.35;;;;;;;24.41;47.66;101592.88;4933567;28;20058;-74
2021/10/26 09:47:41;;;;;;;10.43;2.30;;;;;;;24.34;47.33;101597.56;4959456;28;20046;-74
2021/10/26 09:50:11;;;;;;;10.13;3.20;;;;;;;24.55;47.09;101599.63;4956140;28;20039;-74
2021/10/26 09:52:42;;;;;;;7.32;2.42;;;;;;;24.76;47.12;101605.34;4947961;28;20081;-74
2021/10/26 09:55:14;;;;;;;8.20;3.05;;;;;;;24.93;46.64;101600.38;4951521;28;20050;-74
2021/10/26 09:57:44;;;;;;;6.03;2.10;;;;;;;25.04;46.25;101595.53;4948603;28;20101;-75
2021/10/26 10:00:14;;;;;;;8.20;3.63;;;;;;;24.98;45.82;101588.50;4947785;28;20051;-75
2021/10/26 10:02:42;;;;;;;7.90;3.10;;;;;;;24.87;45.50;101587.03;4952723;28;20051;-74
2021/10/26 10:05:21;;;;;;;7.07;2.75;;;;;;;24.93;44.82;101579.66;4951937;28;20404;-74
2021/10/26 10:07:49;;;;;;;7.70;2.60;;;;;;;24.77;44.98;101566.59;4952926;28;20496;-74
2021/10/26 10:10:16;;;;;;;10.75;2.90;;;;;;;24.84;45.50;101570.88;4953251;28;20443;-73
2021/10/26 10:12:45;;;;;;;10.10;2.80;;;;;;;24.99;44.87;101573.16;4954076;28;20496;-73
2021/10/26 10:15:16;;;;;;;8.10;2.90;;;;;;;25.04;44.62;101576.59;4953162;28;20616;-74
2021/10/26 10:17:45;;;;;;;9.70;2.75;;;;;;;25.13;44.45;101580.84;4959731;28;20047;-73
2021/10/26 10:20:14;;;;;;;10.10;2.75;;;;;;;25.22;44.60;101581.41;4968322;28;20050;-73
2021/10/26 10:22:42;;;;;;;9.45;2.90;;;;;;;24.88;44.80;101572.56;4954924;28;20053;-74
2021/10/26 10:25:11;;;;;;;12.75;3.00;;;;;;;24.88;44.93;101572.56;4958770;28;20067;-73
2021/10/26 10:27:42;;;;;;;10.13;3.15;;;;;;;24.92;45.41;101563.47;4952892;28;20051;-73
2021/10/26 10:30:14;;;;;;;10.30;3.28;;;;;;;24.91;45.23;101564.41;4947268;28;20039;-70
2021/10/26 10:32:42;;;;;;;10.93;3.28;;;;;;;24.92;45.25;101555.38;4946657;28;20062;-73
2021/10/26 10:35:16;;;;;;;11.73;4.13;;;;;;;24.99;45.46;101543.44;4946447;28;20039;-74
2021/10/26 10:37:47;;;;;;;12.73;3.67;;;;;;;24.93;45.18;101528.31;4946238;28;20116;-73
2021/10/26 10:40:15;;;;;;;8.80;3.80;;;;;;;24.69;44.85;101544.34;4949434;28;20054;-73
2021/10/26 10:42:48;;;;;;;16.85;3.97;;;;;;;24.42;44.90;101535.25;5002447;28;20512;-72
2021/10/26 10:45:34;;;;;;;7.07;3.22;;;;;;;24.41;45.11;101536.19;4973775;28;21536;-73
2021/10/26 10:48:02;;;;;;;9.35;3.15;;;;;;;24.45;45.18;101530.66;4939696;28;20118;-73
2021/10/26 10:50:33;;;;;;;10.35;3.95;;;;;;;24.36;45.54;101533.59;5043364;28;20037;-73
2021/10/26 10:53:09;;;;;;;10.70;4.28;;;;;;;24.20;45.46;101532.28;4980348;28;20047;-72
2021/10/26 10:55:37;;;;;;;10.80;4.25;;;;;;;24.05;45.71;101532.69;4995712;28;20071;-71
2021/10/26 10:58:28;;;;;;;14.80;3.78;;;;;;;23.87;46.20;101525.09;5024915;28;20494;-71
2021/10/26 11:01:30;;;;;;;8.82;4.45;;;;;;;23.75;46.49;101523.63;5050403;28;20379;-73
2021/10/26 11:03:58;;;;;;;11.55;3.83;;;;;;;23.64;46.75;101528.38;5005373;28;20040;-73
2021/10/26 11:07:02;;;;;;;14.63;4.90;;;;;;;23.59;47.01;101530.31;4949917;28;20523;-73
2021/10/26 11:09:45;;;;;;;11.43;5.03;;;;;;;23.58;47.21;101544.72;4937142;28;20047;-73
2021/10/26 11:12:20;;;;;;;12.25;4.75;;;;;;;23.53;47.38;101541.25;4950657;28;20040;-72
2021/10/26 11:14:51;;;;;;;8.60;4.65;;;;;;;23.54;47.52;101548.44;4950151;28;20039;-72
2021/10/26 11:17:49;;;;;;;8.75;4.00;;;;;;;23.64;47.47;101545.44;4951298;28;20043;-72
2021/10/26 11:20:45;;;;;;;11.85;4.50;;;;;;;23.64;47.53;101531.97;4950483;28;20039;-73
2021/10/26 11:23:16;;;;;;;13.52;5.38;;;;;;;23.60;47.59;101530.28;4999654;28;20098;-72
2021/10/26 11:25:46;;;;;;;14.48;4.75;;;;;;;23.58;47.64;101528.53;5033932;28;20057;-72
2021/10/26 11:28:49;;;;;;;9.43;4.00;;;;;;;23.60;47.72;101505.13;4967743;28;20436;-73
2021/10/26 11:31:23;;;;;;;12.63;4.90;;;;;;;23.71;47.42;101487.75;5012452;28;20368;-73
2021/10/26 11:34:07;;;;;;;13.05;4.90;;;;;;;23.81;46.92;101496.47;5018225;28;20132;-73
2021/10/26 11:36:36;;;;;;;12.52;4.30;;;;;;;23.80;46.67;101492.00;5045022;28;20128;-73
2021/10/26 11:39:14;;;;;;;24.73;5.78;;;;;;;23.93;46.94;101487.16;5047347;28;20049;-72